Rose City, Michigan
Current Conditions -  °F | °C
As of 6:05 PM on Thursday 20 Nov 2014 (Local Time) from KHTL Reporting Station
Light Snow Light Snow  
Wind Chill:   Ceiling: 1800
Heat Index: 14°   Visibility: 5mi
Dew Point: 10°   Wind: 6mph
Humidity: 84%   Direction: 280°W
Pressure: 29.95"   Gusts: NA
Location:  44.42°N, 84.12°W
Report Text: KHTL 202305Z AUTO 28005KT 5SM -SN BR BKN018 M10/M12 A2995 RMK AO2 SNB2258 P0000 T11001122
Loading
Personal Weather Stations






























Interactive Weather Map New forecast layout! Learn more

10-Day Weather Forecast

Advertisements
Track Severe Weather on mobile